createdAt,value
2019-02-23T00:00:51.304Z,0.00
2019-02-23T00:01:51.337Z,0.00
2019-02-23T00:02:51.368Z,0.00
2019-02-23T00:03:51.396Z,0.00
2019-02-23T00:04:51.503Z,0.00
2019-02-23T00:05:51.765Z,0.00
2019-02-23T00:06:51.497Z,0.00
2019-02-23T00:07:51.527Z,0.00
2019-02-23T00:08:51.689Z,0.00
2019-02-23T00:09:51.589Z,0.00
2019-02-23T00:10:51.676Z,0.00
2019-02-23T00:11:51.709Z,0.00
2019-02-23T00:12:51.986Z,0.00
2019-02-23T00:13:51.718Z,0.00
2019-02-23T00:14:51.750Z,0.00
2019-02-23T00:15:51.836Z,0.00
2019-02-23T00:16:51.822Z,0.00
2019-02-23T00:17:51.899Z,0.00
2019-02-23T00:19:51.914Z,0.00
2019-02-23T00:20:52.298Z,0.00
2019-02-23T00:21:52.023Z,0.00
2019-02-23T00:22:52.055Z,0.00
2019-02-23T00:23:52.232Z,0.00
2019-02-23T00:24:52.137Z,0.00
2019-02-23T00:25:52.153Z,0.00
2019-02-23T00:26:52.439Z,0.00
2019-02-23T00:27:52.173Z,0.00
2019-02-23T00:28:52.215Z,0.00
2019-02-23T00:29:52.230Z,0.00
2019-02-23T00:30:52.318Z,0.00
2019-02-23T00:31:52.295Z,0.00
2019-02-23T00:32:52.379Z,0.00
2019-02-23T00:33:52.659Z,0.00
2019-02-23T00:35:52.521Z,0.00
2019-02-23T00:36:52.506Z,0.00
2019-02-23T00:37:52.584Z,0.00
2019-02-23T00:38:52.524Z,0.00
2019-02-23T00:39:52.601Z,0.00
2019-02-23T00:40:52.899Z,0.00
2019-02-23T00:41:52.624Z,0.00
2019-02-23T00:42:52.700Z,0.00
2019-02-23T00:43:52.733Z,0.00
2019-02-23T00:44:52.765Z,0.00
2019-02-23T00:45:52.800Z,0.00
2019-02-23T00:46:52.783Z,0.00
2019-02-23T00:47:53.107Z,0.00
2019-02-23T00:48:52.842Z,0.00
2019-02-23T00:49:52.924Z,0.00
2019-02-23T00:50:52.908Z,0.00
2019-02-23T00:51:52.937Z,0.00
2019-02-23T00:52:53.019Z,0.00
2019-02-23T00:53:53.149Z,0.00
2019-02-23T00:54:53.338Z,0.00
2019-02-23T00:55:53.063Z,0.00
2019-02-23T00:56:53.156Z,0.00
2019-02-23T00:57:53.130Z,0.00
2019-02-23T00:58:53.209Z,0.00
2019-02-23T00:59:53.189Z,0.00
2019-02-23T01:00:53.281Z,0.00
2019-02-23T01:01:53.614Z,0.00
2019-02-23T01:02:53.290Z,0.00
2019-02-23T01:03:53.368Z,0.00
2019-02-23T01:04:53.355Z,0.00
2019-02-23T01:05:53.393Z,0.00
2019-02-23T01:06:53.469Z,0.00
2019-02-23T01:07:53.503Z,0.00
2019-02-23T01:08:53.783Z,0.00
2019-02-23T01:09:53.565Z,0.00
2019-02-23T01:10:58.135Z,0.00
2019-02-23T01:11:53.578Z,0.00
2019-02-23T01:12:53.625Z,0.00
2019-02-23T01:13:53.691Z,0.00
2019-02-23T01:14:53.722Z,0.00
2019-02-23T01:15:54.107Z,0.00
2019-02-23T01:16:53.790Z,0.00
2019-02-23T01:17:53.764Z,0.00
2019-02-23T01:18:53.795Z,0.00
2019-02-23T01:19:53.887Z,0.00
2019-02-23T01:20:53.922Z,0.00
2019-02-23T01:21:53.892Z,0.00
2019-02-23T01:22:54.226Z,0.00
2019-02-23T01:23:53.963Z,0.00
2019-02-23T01:24:54.048Z,0.00
2019-02-23T01:25:54.070Z,0.00
2019-02-23T01:26:54.051Z,0.00
2019-02-23T01:27:54.145Z,0.00
2019-02-23T01:28:54.168Z,0.00
2019-02-23T01:29:54.499Z,0.00
2019-02-23T01:30:54.182Z,0.00
2019-02-23T01:31:54.230Z,0.00
2019-02-23T01:32:54.311Z,0.00
2019-02-23T01:33:54.329Z,0.00
2019-02-23T01:34:54.311Z,0.00
2019-02-23T01:35:54.341Z,0.00
2019-02-23T01:36:54.679Z,0.00
2019-02-23T01:37:54.456Z,0.00
2019-02-23T01:38:54.451Z,0.00
2019-02-23T01:39:54.520Z,0.00
2019-02-23T01:40:54.553Z,0.00
2019-02-23T01:41:54.574Z,0.00
2019-02-23T01:42:54.866Z,0.00
2019-02-23T01:43:54.653Z,0.00
2019-02-23T01:44:54.633Z,0.00
2019-02-23T01:45:54.660Z,0.00
2019-02-23T01:46:54.838Z,0.00
2019-02-23T01:47:54.725Z,0.00
2019-02-23T01:48:55.055Z,0.00
2019-02-23T01:49:58.772Z,0.00
2019-02-23T01:50:54.822Z,0.00
2019-02-23T01:51:54.855Z,0.00
2019-02-23T01:52:54.880Z,0.00
2019-02-23T01:53:54.913Z,0.00
2019-02-23T01:54:55.296Z,0.00
2019-02-23T01:55:55.079Z,0.00
2019-02-23T01:56:55.067Z,0.00
2019-02-23T01:58:55.070Z,0.00
2019-02-23T01:59:55.103Z,0.00
2019-02-23T02:00:55.193Z,0.00
2019-02-23T02:01:55.571Z,0.00
2019-02-23T02:02:55.255Z,0.00
2019-02-23T02:03:55.231Z,0.00
2019-02-23T02:04:55.267Z,0.00
2019-02-23T02:05:55.295Z,0.00
2019-02-23T02:06:55.324Z,0.00
2019-02-23T02:07:55.413Z,0.00
2019-02-23T02:08:55.740Z,0.00
2019-02-23T02:09:55.429Z,0.00
2019-02-23T02:10:55.502Z,0.00
2019-02-23T02:11:55.553Z,0.00
2019-02-23T02:12:55.575Z,0.00
2019-02-23T02:13:55.554Z,0.00
2019-02-23T02:14:55.633Z,0.00
2019-02-23T02:15:55.917Z,0.00
2019-02-23T02:16:55.702Z,0.00
2019-02-23T02:17:55.725Z,0.00
2019-02-23T02:18:55.718Z,0.00
2019-02-23T02:19:55.794Z,0.00
2019-02-23T02:20:55.823Z,0.00
2019-02-23T02:21:55.854Z,0.00
2019-02-23T02:22:56.140Z,0.00
2019-02-23T02:23:55.875Z,0.00
2019-02-23T02:24:55.951Z,0.00
2019-02-23T02:25:55.987Z,0.00
2019-02-23T02:26:56.070Z,0.00
2019-02-23T02:27:56.047Z,0.00
2019-02-23T02:28:56.082Z,0.00
2019-02-23T02:29:56.366Z,0.00
2019-02-23T02:30:56.159Z,0.00
2019-02-23T02:31:56.123Z,0.00
2019-02-23T02:32:56.301Z,0.00
2019-02-23T02:33:56.295Z,0.00
2019-02-23T02:34:56.267Z,0.00
2019-02-23T02:35:56.250Z,0.00
2019-02-23T02:36:57.017Z,0.00
2019-02-23T02:37:56.360Z,0.00
2019-02-23T02:38:56.398Z,0.00
2019-02-23T02:39:56.378Z,0.00
2019-02-23T02:40:56.416Z,0.00
2019-02-23T02:41:56.493Z,0.00
2019-02-23T02:42:56.470Z,0.00
2019-02-23T02:43:56.861Z,0.00
2019-02-23T02:44:56.673Z,0.00
2019-02-23T02:45:56.564Z,0.00
2019-02-23T02:46:56.690Z,0.00
2019-02-23T02:47:56.631Z,0.00
2019-02-23T02:48:56.724Z,0.00
2019-02-23T02:49:56.823Z,0.00
2019-02-23T02:50:57.128Z,0.00
2019-02-23T02:51:56.876Z,0.00
2019-02-23T02:52:57.139Z,0.00
2019-02-23T02:53:56.878Z,0.00
2019-02-23T02:54:56.951Z,0.00
2019-02-23T02:55:56.978Z,0.00
2019-02-23T02:56:56.970Z,0.00
2019-02-23T02:57:57.351Z,0.00
2019-02-23T02:58:57.021Z,0.00
2019-02-23T03:00:57.094Z,0.00
2019-02-23T03:01:58.940Z,0.00
2019-02-23T03:02:57.098Z,0.00
2019-02-23T03:03:57.134Z,0.00
2019-02-23T03:04:57.472Z,0.00
2019-02-23T03:05:57.205Z,0.00
2019-02-23T03:06:57.281Z,0.00
2019-02-23T03:07:57.269Z,0.00
2019-02-23T03:08:57.346Z,0.00
2019-02-23T03:09:57.326Z,0.00
2019-02-23T03:10:57.352Z,0.00
2019-02-23T03:11:57.684Z,0.00
2019-02-23T03:12:57.424Z,0.00
2019-02-23T03:13:57.452Z,0.00
2019-02-23T03:14:57.529Z,0.00
2019-02-23T03:15:57.511Z,0.00
2019-02-23T03:16:57.598Z,0.00
2019-02-23T03:17:57.627Z,0.00
2019-02-23T03:18:57.914Z,0.00
2019-02-23T03:19:57.642Z,0.00
2019-02-23T03:20:57.679Z,0.00
2019-02-23T03:21:57.771Z,0.00
2019-02-23T03:22:57.789Z,0.00
2019-02-23T03:23:57.813Z,0.00
2019-02-23T03:24:57.851Z,0.00
2019-02-23T03:25:58.130Z,0.00
2019-02-23T03:26:57.863Z,0.00
2019-02-23T03:27:57.945Z,0.00
2019-02-23T03:28:57.979Z,0.00
2019-02-23T03:29:57.952Z,0.00
2019-02-23T03:30:58.000Z,0.00
2019-02-23T03:31:58.325Z,0.00
2019-02-23T03:32:58.100Z,0.00
2019-02-23T03:33:58.087Z,0.00
2019-02-23T03:34:58.164Z,0.00
2019-02-23T03:35:58.150Z,0.00
2019-02-23T03:36:58.178Z,0.00
2019-02-23T03:37:58.506Z,0.00
2019-02-23T03:38:58.239Z,0.00
2019-02-23T03:39:58.269Z,0.00
2019-02-23T03:40:58.360Z,0.00
2019-02-23T03:41:58.381Z,0.00
2019-02-23T03:42:58.368Z,0.00
2019-02-23T03:43:58.696Z,0.00
2019-02-23T03:44:58.429Z,0.00
2019-02-23T03:45:58.463Z,0.00
2019-02-23T03:46:58.501Z,0.00
2019-02-23T03:47:58.528Z,0.00
2019-02-23T03:48:58.602Z,0.00
2019-02-23T03:49:58.582Z,0.00
2019-02-23T03:50:58.915Z,0.00
2019-02-23T03:51:58.652Z,0.00
2019-02-23T03:52:58.745Z,0.00
2019-02-23T03:53:58.769Z,0.00
2019-02-23T03:54:58.799Z,0.00
2019-02-23T03:55:58.785Z,0.00
2019-02-23T03:56:58.860Z,0.00
2019-02-23T03:57:59.244Z,0.00
2019-02-23T03:58:58.882Z,0.00
2019-02-23T03:59:58.958Z,0.00
2019-02-23T04:00:58.940Z,0.00
2019-02-23T04:01:59.122Z,0.00
2019-02-23T04:02:59.003Z,0.00
2019-02-23T04:03:59.029Z,0.00
2019-02-23T04:04:59.376Z,0.00
2019-02-23T04:05:59.146Z,0.00
2019-02-23T04:06:59.141Z,0.00
2019-02-23T04:07:59.157Z,0.00
2019-02-23T04:08:59.188Z,0.00
2019-02-23T04:09:59.319Z,0.00
2019-02-23T04:11:59.279Z,0.00
2019-02-23T04:12:59.610Z,0.00
2019-02-23T04:13:59.345Z,0.00
2019-02-23T04:14:59.426Z,0.00
2019-02-23T04:15:59.407Z,0.00
2019-02-23T04:16:59.450Z,0.00
2019-02-23T04:17:59.479Z,0.00
2019-02-23T04:18:59.497Z,0.00
2019-02-23T04:19:59.889Z,0.00
2019-02-23T04:21:01.990Z,0.00
2019-02-23T04:21:59.606Z,0.00
2019-02-23T04:22:59.633Z,0.00
2019-02-23T04:23:59.666Z,0.00
2019-02-23T04:24:59.744Z,0.00
2019-02-23T04:25:59.720Z,0.00
2019-02-23T04:27:00.056Z,0.00
2019-02-23T04:27:59.783Z,0.00
2019-02-23T04:28:59.862Z,0.00
2019-02-23T04:29:59.850Z,0.00
2019-02-23T04:30:59.875Z,0.00
2019-02-23T04:31:59.910Z,0.00
2019-02-23T04:32:59.957Z,0.00
2019-02-23T04:34:00.311Z,0.00
2019-02-23T04:35:00.019Z,0.00
2019-02-23T04:36:00.034Z,0.00
2019-02-23T04:37:00.080Z,0.00
2019-02-23T04:38:00.104Z,0.00
2019-02-23T04:39:00.145Z,0.00
2019-02-23T04:40:00.532Z,0.00
2019-02-23T04:41:00.542Z,0.00
2019-02-23T04:42:00.222Z,0.00
2019-02-23T04:43:00.254Z,0.00
2019-02-23T04:44:00.292Z,0.00
2019-02-23T04:45:00.343Z,0.00
2019-02-23T04:46:00.353Z,0.00
2019-02-23T04:47:00.451Z,0.00
2019-02-23T04:48:00.713Z,0.00
2019-02-23T04:49:00.509Z,0.00
2019-02-23T04:50:00.566Z,0.00
2019-02-23T04:51:00.506Z,0.00
2019-02-23T04:52:00.594Z,0.00
2019-02-23T04:53:00.595Z,0.00
2019-02-23T04:54:00.603Z,0.00
2019-02-23T04:55:00.943Z,0.00
2019-02-23T04:57:00.745Z,0.00
2019-02-23T04:58:00.789Z,0.00
2019-02-23T04:59:00.768Z,0.00
2019-02-23T05:00:00.850Z,0.00
2019-02-23T05:01:00.832Z,0.00
2019-02-23T05:02:01.214Z,0.00
2019-02-23T05:03:00.893Z,0.00
2019-02-23T05:04:00.924Z,0.00
2019-02-23T05:05:00.997Z,0.00
2019-02-23T05:06:01.003Z,0.00
2019-02-23T05:07:01.066Z,0.00
2019-02-23T05:08:01.048Z,0.00
2019-02-23T05:09:01.377Z,0.00
2019-02-23T05:10:01.153Z,0.00
2019-02-23T05:11:01.134Z,0.00
2019-02-23T05:12:01.217Z,0.00
2019-02-23T05:13:01.200Z,0.00
2019-02-23T05:14:01.286Z,0.00
2019-02-23T05:15:01.265Z,0.00
2019-02-23T05:16:01.601Z,0.00
2019-02-23T05:17:01.379Z,0.00
2019-02-23T05:18:01.362Z,0.00
2019-02-23T05:19:01.437Z,0.00
2019-02-23T05:20:01.425Z,0.00
2019-02-23T05:21:01.457Z,0.00
2019-02-23T05:22:01.489Z,0.00
2019-02-23T05:23:01.888Z,0.00
2019-02-23T05:24:01.602Z,0.00
2019-02-23T05:25:01.628Z,0.00
2019-02-23T05:26:01.613Z,0.00
2019-02-23T05:27:01.703Z,0.00
2019-02-23T05:28:01.674Z,0.00
2019-02-23T05:29:01.769Z,0.00
2019-02-23T05:30:02.056Z,0.00
2019-02-23T05:31:01.770Z,0.00
2019-02-23T05:32:01.852Z,0.00
2019-02-23T05:33:02.178Z,0.00
2019-02-23T05:34:01.856Z,0.00
2019-02-23T05:35:01.893Z,0.00
2019-02-23T05:36:01.926Z,0.00
2019-02-23T05:37:02.257Z,0.00
2019-02-23T05:38:02.048Z,0.00
2019-02-23T05:39:02.017Z,0.00
2019-02-23T05:40:02.053Z,0.00
2019-02-23T05:41:02.133Z,0.00
2019-02-23T05:42:02.113Z,0.00
2019-02-23T05:43:02.215Z,0.00
2019-02-23T05:44:02.564Z,0.00
2019-02-23T05:45:02.258Z,0.00
2019-02-23T05:46:02.245Z,0.00
2019-02-23T05:47:02.268Z,0.00
2019-02-23T05:48:02.353Z,0.00
2019-02-23T05:49:02.393Z,0.00
2019-02-23T05:50:02.666Z,0.00
2019-02-23T05:51:02.452Z,0.00
2019-02-23T05:52:02.437Z,0.00
2019-02-23T05:53:02.459Z,0.00
2019-02-23T05:54:02.545Z,0.00
2019-02-23T05:55:02.628Z,0.00
2019-02-23T05:56:02.863Z,0.00
2019-02-23T05:57:02.638Z,0.00
2019-02-23T05:58:02.667Z,0.00
2019-02-23T05:59:02.640Z,0.00
2019-02-23T06:00:02.692Z,0.00
2019-02-23T06:01:02.764Z,0.00
2019-02-23T06:02:03.039Z,0.00
2019-02-23T06:03:02.825Z,0.00
2019-02-23T06:04:02.805Z,0.00
2019-02-23T06:05:02.885Z,0.00
2019-02-23T06:06:02.925Z,0.00
2019-02-23T06:07:02.898Z,0.00
2019-02-23T06:08:02.988Z,0.00
2019-02-23T06:09:03.256Z,0.00
2019-02-23T06:10:03.003Z,4.00
2019-02-23T06:11:03.028Z,4.00
2019-02-23T06:12:03.056Z,4.00
2019-02-23T06:13:03.187Z,0.00
2019-02-23T06:14:03.166Z,4.00
2019-02-23T06:15:03.154Z,0.00
2019-02-23T06:16:03.481Z,4.00
2019-02-23T06:17:04.217Z,8.00
2019-02-23T06:18:03.312Z,8.00
2019-02-23T06:19:03.274Z,8.00
2019-02-23T06:20:03.317Z,8.00
2019-02-23T06:21:03.340Z,8.00
2019-02-23T06:22:03.419Z,12.00
2019-02-23T06:23:03.749Z,12.00
2019-02-23T06:24:03.425Z,12.00
2019-02-23T06:25:03.513Z,16.00
2019-02-23T06:26:03.495Z,16.00
2019-02-23T06:27:03.586Z,16.00
2019-02-23T06:28:03.608Z,20.00
2019-02-23T06:29:03.651Z,16.00
2019-02-23T06:30:03.915Z,20.00
2019-02-23T06:31:03.661Z,24.00
2019-02-23T06:32:03.702Z,28.00
2019-02-23T06:33:03.780Z,32.00
2019-02-23T06:34:15.523Z,32.00
2019-02-23T06:35:03.779Z,36.00
2019-02-23T06:36:03.854Z,40.00
2019-02-23T06:37:04.189Z,40.00
2019-02-23T06:38:03.921Z,48.00
2019-02-23T06:39:03.952Z,48.00
2019-02-23T06:40:03.982Z,52.00
2019-02-23T06:41:03.997Z,60.00
2019-02-23T06:42:04.013Z,60.00
2019-02-23T06:43:04.035Z,68.00
2019-02-23T06:44:04.400Z,72.00
2019-02-23T06:45:04.161Z,76.00
2019-02-23T06:46:04.130Z,80.00
2019-02-23T06:47:04.156Z,84.00
2019-02-23T06:48:04.196Z,92.00
2019-02-23T06:49:04.289Z,100.00
2019-02-23T06:50:04.303Z,112.00
2019-02-23T06:51:04.580Z,116.00
2019-02-23T06:52:04.836Z,120.00
2019-02-23T06:53:04.345Z,128.00
2019-02-23T06:54:04.375Z,140.00
2019-02-23T06:55:04.460Z,148.00
2019-02-23T06:56:04.438Z,160.00
2019-02-23T06:57:04.517Z,168.00
2019-02-23T06:58:04.800Z,172.00
2019-02-23T06:59:04.534Z,184.00
2019-02-23T07:00:04.608Z,192.00
2019-02-23T07:01:04.595Z,200.00
2019-02-23T07:02:04.693Z,208.00
2019-02-23T07:03:04.653Z,216.00
2019-02-23T07:04:04.693Z,224.00
2019-02-23T07:05:05.024Z,232.00
2019-02-23T07:06:04.809Z,236.00
2019-02-23T07:07:04.838Z,244.00
2019-02-23T07:08:04.818Z,252.00
2019-02-23T07:09:04.992Z,260.00
2019-02-23T07:10:04.874Z,268.00
2019-02-23T07:11:05.016Z,276.00
2019-02-23T07:12:05.244Z,284.00
2019-02-23T07:13:05.037Z,292.00
2019-02-23T07:14:05.046Z,304.00
2019-02-23T07:15:05.080Z,308.00
2019-02-23T07:16:05.066Z,320.00
2019-02-23T07:17:05.340Z,324.00
2019-02-23T07:18:05.139Z,332.00
2019-02-23T07:19:05.459Z,344.00
2019-02-23T07:20:05.249Z,352.00
2019-02-23T07:21:05.220Z,360.00
2019-02-23T07:22:15.079Z,368.00
2019-02-23T07:23:05.303Z,380.00
2019-02-23T07:24:05.316Z,384.00
2019-02-23T07:25:05.343Z,396.00
2019-02-23T07:26:05.679Z,408.00
2019-02-23T07:27:05.420Z,420.00
2019-02-23T07:28:05.443Z,424.00
2019-02-23T07:29:05.539Z,432.00
2019-02-23T07:30:05.555Z,440.00
2019-02-23T07:31:05.597Z,448.00
2019-02-23T07:32:05.870Z,460.00
2019-02-23T07:33:05.652Z,468.00
2019-02-23T07:34:05.696Z,476.00
2019-02-23T07:35:05.719Z,484.00
2019-02-23T07:36:05.750Z,492.00
2019-02-23T07:37:05.856Z,500.00
2019-02-23T07:38:06.049Z,504.00
2019-02-23T07:39:05.782Z,512.00
2019-02-23T07:40:05.817Z,516.00
2019-02-23T07:41:05.854Z,528.00
2019-02-23T07:44:05.989Z,552.00
2019-02-23T07:45:06.351Z,556.00
2019-02-23T07:46:06.053Z,564.00
2019-02-23T07:47:06.101Z,572.00
2019-02-23T07:48:06.129Z,572.00
2019-02-23T07:49:06.164Z,584.00
2019-02-23T07:50:06.128Z,592.00
2019-02-23T07:52:06.498Z,600.00
2019-02-23T07:53:06.278Z,612.00
2019-02-23T07:54:06.260Z,612.00
2019-02-23T07:55:06.340Z,620.00
2019-02-23T07:56:06.350Z,624.00
2019-02-23T07:57:06.375Z,624.00
2019-02-23T07:58:06.686Z,632.00
2019-02-23T07:59:06.438Z,648.00
2019-02-23T08:00:06.505Z,648.00
2019-02-23T08:01:06.527Z,652.00
2019-02-23T08:02:06.561Z,660.00
2019-02-23T08:03:06.544Z,656.00
2019-02-23T08:04:06.573Z,660.00
2019-02-23T08:05:06.918Z,668.00
2019-02-23T08:06:06.685Z,664.00
2019-02-23T08:07:06.672Z,672.00
2019-02-23T08:09:06.790Z,672.00
2019-02-23T08:10:06.815Z,668.00
2019-02-23T08:11:06.874Z,660.00
2019-02-23T08:12:07.192Z,664.00
2019-02-23T08:13:07.451Z,676.00
2019-02-23T08:14:06.893Z,680.00
2019-02-23T08:15:06.921Z,684.00
2019-02-23T08:16:07.011Z,696.00
2019-02-23T08:17:07.034Z,692.00
2019-02-23T08:18:07.023Z,688.00
2019-02-23T08:19:07.346Z,684.00
2019-02-23T08:20:07.141Z,688.00
2019-02-23T08:21:07.159Z,688.00
2019-02-23T08:22:07.185Z,664.00
2019-02-23T08:23:07.177Z,660.00
2019-02-23T08:24:07.253Z,648.00
2019-02-23T08:25:07.245Z,648.00
2019-02-23T08:26:07.567Z,692.00
2019-02-23T08:27:07.343Z,704.00
2019-02-23T08:28:07.340Z,704.00
2019-02-23T08:29:07.408Z,712.00
2019-02-23T08:30:07.393Z,716.00
2019-02-23T08:31:07.469Z,720.00
2019-02-23T08:32:07.456Z,724.00
2019-02-23T08:33:07.788Z,724.00
2019-02-23T08:34:07.570Z,708.00
2019-02-23T08:35:07.553Z,720.00
2019-02-23T08:36:07.585Z,732.00
2019-02-23T08:37:07.661Z,728.00
2019-02-23T08:38:08.047Z,736.00
2019-02-23T08:39:07.678Z,740.00
2019-02-23T08:40:08.006Z,748.00
2019-02-23T08:41:07.805Z,748.00
2019-02-23T08:42:07.815Z,760.00
2019-02-23T08:43:07.796Z,756.00
2019-02-23T08:44:07.838Z,768.00
2019-02-23T08:45:07.912Z,760.00
2019-02-23T08:46:07.898Z,760.00
2019-02-23T08:47:08.228Z,744.00
2019-02-23T08:48:08.009Z,748.00
2019-02-23T08:49:08.039Z,760.00
2019-02-23T08:50:08.017Z,776.00
2019-02-23T08:51:08.072Z,784.00
2019-02-23T08:52:08.091Z,796.00
2019-02-23T08:53:08.165Z,792.00
2019-02-23T08:54:08.503Z,800.00
2019-02-23T08:55:08.205Z,796.00
2019-02-23T08:56:08.258Z,804.00
2019-02-23T08:57:08.247Z,812.00
2019-02-23T08:58:08.268Z,808.00
2019-02-23T08:59:08.303Z,812.00
2019-02-23T09:00:08.347Z,804.00
2019-02-23T09:01:08.467Z,804.00
2019-02-23T09:02:08.448Z,812.00
2019-02-23T09:03:08.430Z,820.00
2019-02-23T09:04:08.519Z,820.00
2019-02-23T09:05:08.497Z,816.00
2019-02-23T09:06:08.529Z,816.00
2019-02-23T09:07:08.887Z,808.00
2019-02-23T09:08:08.646Z,820.00
2019-02-23T09:09:08.664Z,828.00
2019-02-23T09:10:08.664Z,836.00
2019-02-23T09:11:08.689Z,844.00
2019-02-23T09:12:08.719Z,856.00
2019-02-23T09:13:08.747Z,864.00
2019-02-23T09:14:08.822Z,876.00
2019-02-23T09:15:08.804Z,884.00
2019-02-23T09:16:08.841Z,892.00
2019-02-23T09:17:08.921Z,904.00
2019-02-23T09:18:09.006Z,904.00
2019-02-23T09:19:09.237Z,912.00
2019-02-23T09:20:08.971Z,908.00
2019-02-23T09:21:08.998Z,892.00
2019-02-23T09:22:09.046Z,896.00
2019-02-23T09:23:09.111Z,900.00
2019-02-23T09:24:09.100Z,892.00
2019-02-23T09:25:09.423Z,892.00
2019-02-23T09:26:09.158Z,900.00
2019-02-23T09:27:09.254Z,912.00
2019-02-23T09:29:09.301Z,932.00
2019-02-23T09:30:09.456Z,932.00
2019-02-23T09:31:09.346Z,924.00
2019-02-23T09:32:09.675Z,936.00
2019-02-23T09:33:09.377Z,936.00
2019-02-23T09:34:09.464Z,940.00
2019-02-23T09:35:09.438Z,940.00
2019-02-23T09:36:09.474Z,948.00
2019-02-23T09:37:09.572Z,964.00
2019-02-23T09:38:09.584Z,964.00
2019-02-23T09:39:09.869Z,964.00
2019-02-23T09:40:09.602Z,948.00
2019-02-23T09:41:09.688Z,956.00
2019-02-23T09:42:09.656Z,964.00
2019-02-23T09:43:09.756Z,968.00
2019-02-23T09:44:09.733Z,964.00
2019-02-23T09:45:09.808Z,964.00
2019-02-23T09:46:10.143Z,968.00
2019-02-23T09:47:09.818Z,960.00
2019-02-23T09:48:09.855Z,960.00
2019-02-23T09:49:09.956Z,968.00
2019-02-23T09:50:09.960Z,976.00
2019-02-23T09:51:09.999Z,988.00
2019-02-23T09:52:09.985Z,988.00
2019-02-23T09:53:11.484Z,984.00
2019-02-23T09:54:10.091Z,984.00
2019-02-23T09:55:10.078Z,968.00
2019-02-23T09:56:10.103Z,980.00
2019-02-23T09:57:10.191Z,988.00
2019-02-23T09:58:10.164Z,1012.00
2019-02-23T09:59:10.262Z,1024.00
2019-02-23T10:00:10.598Z,1036.00
2019-02-23T10:01:10.314Z,1036.00
2019-02-23T10:02:10.299Z,1040.00
2019-02-23T10:03:10.383Z,1024.00
2019-02-23T10:04:10.411Z,1020.00
2019-02-23T10:05:10.450Z,1016.00
2019-02-23T10:06:10.423Z,1036.00
2019-02-23T10:07:10.941Z,1056.00
2019-02-23T10:08:10.779Z,1072.00
2019-02-23T10:09:10.693Z,1076.00
2019-02-23T10:10:10.601Z,1080.00
2019-02-23T10:11:10.635Z,1060.00
2019-02-23T10:12:10.621Z,1052.00
2019-02-23T10:13:10.693Z,1064.00
2019-02-23T10:14:10.980Z,1076.00
2019-02-23T10:15:10.711Z,1080.00
2019-02-23T10:16:10.891Z,1076.00
2019-02-23T10:17:10.776Z,1068.00
2019-02-23T10:18:10.805Z,1068.00
2019-02-23T10:19:10.835Z,1072.00
2019-02-23T10:20:10.871Z,1072.00
2019-02-23T10:21:11.205Z,1080.00
2019-02-23T10:22:11.055Z,1080.00
2019-02-23T10:23:21.590Z,1080.00
2019-02-23T10:24:11.000Z,1084.00
2019-02-23T10:25:11.028Z,1088.00
2019-02-23T10:26:11.115Z,1088.00
2019-02-23T10:27:11.088Z,1088.00
2019-02-23T10:28:11.127Z,1088.00
2019-02-23T10:29:11.206Z,1092.00
2019-02-23T10:31:11.214Z,1092.00
2019-02-23T10:32:11.295Z,1100.00
2019-02-23T10:33:11.334Z,1108.00
2019-02-23T10:34:11.612Z,1104.00
2019-02-23T10:35:11.350Z,1100.00
2019-02-23T10:36:11.381Z,1092.00
2019-02-23T10:37:11.414Z,1100.00
2019-02-23T10:38:11.488Z,1116.00
2019-02-23T10:39:11.470Z,1120.00
2019-02-23T10:40:11.804Z,1116.00
2019-02-23T10:41:11.581Z,1116.00
2019-02-23T10:42:11.577Z,1132.00
2019-02-23T10:43:11.644Z,1144.00
2019-02-23T10:44:11.684Z,1140.00
2019-02-23T10:45:11.733Z,1152.00
2019-02-23T10:46:12.320Z,1152.00
2019-02-23T10:47:11.862Z,1160.00
2019-02-23T10:48:11.816Z,1156.00
2019-02-23T10:49:11.840Z,1156.00
2019-02-23T10:50:11.876Z,1156.00
2019-02-23T10:51:11.857Z,1172.00
2019-02-23T10:52:11.895Z,1168.00
2019-02-23T10:53:12.278Z,1184.00
2019-02-23T10:54:11.952Z,1184.00
2019-02-23T10:55:12.035Z,1188.00
2019-02-23T10:56:12.014Z,1184.00
2019-02-23T10:57:12.107Z,1192.00
2019-02-23T10:58:12.087Z,1196.00
2019-02-23T10:59:12.105Z,1200.00
2019-02-23T11:00:12.488Z,1224.00
2019-02-23T11:01:12.225Z,1228.00
2019-02-23T11:02:12.256Z,1240.00
2019-02-23T11:03:12.242Z,1244.00
2019-02-23T11:04:12.274Z,1256.00
2019-02-23T11:05:12.360Z,1264.00
2019-02-23T11:06:12.385Z,1264.00
2019-02-23T11:07:12.660Z,1300.00
2019-02-23T11:08:12.413Z,1308.00
2019-02-23T11:09:12.487Z,1328.00
2019-02-23T11:11:12.543Z,1348.00
2019-02-23T11:12:12.577Z,1360.00
2019-02-23T11:13:12.561Z,1384.00
2019-02-23T11:14:12.883Z,1412.00
2019-02-23T11:15:12.667Z,1420.00
2019-02-23T11:16:12.705Z,1408.00
2019-02-23T11:17:12.749Z,1428.00
2019-02-23T11:19:12.745Z,1460.00
2019-02-23T11:20:12.835Z,1480.00
2019-02-23T11:21:12.863Z,1496.00
2019-02-23T11:22:12.858Z,1516.00
2019-02-23T11:23:12.874Z,1508.00
2019-02-23T11:24:12.955Z,1488.00
2019-02-23T11:25:12.993Z,1480.00
2019-02-23T11:26:13.026Z,1496.00
2019-02-23T11:27:13.305Z,1508.00
2019-02-23T11:28:13.049Z,1540.00
2019-02-23T11:29:13.121Z,1536.00
2019-02-23T11:30:13.101Z,1540.00
2019-02-23T11:31:13.186Z,1556.00
2019-02-23T11:32:13.181Z,1576.00
2019-02-23T11:33:13.265Z,1604.00
2019-02-23T11:34:13.582Z,1612.00
2019-02-23T11:35:13.275Z,1612.00
2019-02-23T11:36:13.353Z,1636.00
2019-02-23T11:37:13.403Z,1624.00
2019-02-23T11:38:13.411Z,1632.00
2019-02-23T11:39:13.392Z,1616.00
2019-02-23T11:40:13.677Z,1620.00
2019-02-23T11:41:13.772Z,1628.00
2019-02-23T11:42:13.558Z,1628.00
2019-02-23T11:43:13.535Z,1608.00
2019-02-23T11:44:13.572Z,1608.00
2019-02-23T11:45:13.647Z,1612.00
2019-02-23T11:46:13.620Z,1696.00
2019-02-23T11:47:13.731Z,1680.00
2019-02-23T11:48:13.977Z,1708.00
2019-02-23T11:49:13.773Z,1720.00
2019-02-23T11:50:13.912Z,1752.00
2019-02-23T11:51:13.795Z,1752.00
2019-02-23T11:52:13.872Z,1740.00
2019-02-23T11:54:13.925Z,1788.00
2019-02-23T11:55:14.200Z,1824.00
2019-02-23T11:56:13.996Z,1856.00
2019-02-23T11:57:14.023Z,1880.00
2019-02-23T11:58:14.067Z,1912.00
2019-02-23T11:59:14.092Z,1912.00
2019-02-23T12:00:14.061Z,1932.00
2019-02-23T12:01:14.146Z,1980.00
2019-02-23T12:02:14.286Z,2028.00
2019-02-23T12:03:14.165Z,2100.00
2019-02-23T12:05:14.278Z,2220.00
2019-02-23T12:07:14.343Z,2336.00
2019-02-23T12:08:14.668Z,2348.00
2019-02-23T12:09:14.370Z,2388.00
2019-02-23T12:10:14.497Z,2428.00
2019-02-23T12:11:14.525Z,2472.00
2019-02-23T12:12:14.653Z,2488.00
2019-02-23T12:13:14.535Z,2456.00
2019-02-23T12:15:14.845Z,2544.00
2019-02-23T12:16:14.937Z,2564.00
2019-02-23T12:17:14.617Z,2588.00
2019-02-23T12:18:14.774Z,2636.00
2019-02-23T12:19:14.731Z,2668.00
2019-02-23T12:20:14.803Z,2688.00
2019-02-23T12:21:15.037Z,2708.00
2019-02-23T12:22:14.778Z,2716.00
2019-02-23T12:23:14.853Z,2732.00
2019-02-23T12:24:14.895Z,2776.00
2019-02-23T12:26:14.975Z,2852.00
2019-02-23T12:27:14.983Z,2896.00
2019-02-23T12:28:15.012Z,2936.00
2019-02-23T12:29:15.065Z,2992.00
2019-02-23T12:30:15.099Z,3020.00
2019-02-23T12:32:15.161Z,3056.00
2019-02-23T12:33:15.195Z,3092.00
2019-02-23T12:35:15.342Z,3216.00
2019-02-23T12:36:15.294Z,3256.00
2019-02-23T12:37:15.274Z,3340.00
2019-02-23T12:38:15.352Z,3408.00
2019-02-23T12:39:15.644Z,3464.00
2019-02-23T12:40:15.429Z,3500.00
2019-02-23T12:42:15.476Z,3556.00
2019-02-23T12:43:15.561Z,3548.00
2019-02-23T12:45:15.581Z,3516.00
2019-02-23T12:46:15.877Z,3496.00
2019-02-23T12:47:15.661Z,3516.00
2019-02-23T12:48:15.669Z,3552.00
2019-02-23T12:49:15.685Z,3556.00
2019-02-23T12:50:15.689Z,3608.00
2019-02-23T12:51:15.908Z,3624.00
2019-02-23T12:52:15.822Z,3640.00
2019-02-23T12:53:16.195Z,3628.00
2019-02-23T12:54:16.996Z,3632.00
2019-02-23T12:55:15.848Z,3656.00
2019-02-23T12:56:15.950Z,3668.00
2019-02-23T12:57:15.964Z,3696.00
2019-02-23T12:58:15.996Z,3724.00
2019-02-23T12:59:16.283Z,3760.00
2019-02-23T13:00:16.012Z,3760.00
2019-02-23T13:01:16.092Z,3756.00
2019-02-23T13:02:16.129Z,3736.00
2019-02-23T13:03:16.164Z,3732.00
2019-02-23T13:04:16.247Z,3748.00
2019-02-23T13:05:16.507Z,3756.00
2019-02-23T13:07:16.321Z,3764.00
2019-02-23T13:08:16.326Z,3748.00
2019-02-23T13:10:16.342Z,3748.00
2019-02-23T13:11:16.674Z,3752.00
2019-02-23T13:13:16.505Z,3772.00
2019-02-23T13:14:16.520Z,3788.00